Time;durP1;ratioP1;P1;durP2;ratioP2;P2;SDS_P1;SDS_P2;PMS_P1;PMS_P2;Temp;Humidity;BMP_temperature;BMP_pressure;BME280_temperature;BME280_humidity;BME280_pressure;Samples;Min_cycle;Max_cycle;Signal;HPM_P1;HPM_P2
2023/04/23 00:00:11;;;;;;;12.75;6.95;;;;;;;14.18;100.00;100007.69;5015043;28;20068;-75
2023/04/23 00:02:43;;;;;;;9.43;5.65;;;;;;;14.20;100.00;100012.88;5028949;28;20072;-74
2023/04/23 00:05:09;;;;;;;11.77;6.63;;;;;;;14.28;100.00;100018.03;5025375;28;20440;-74
2023/04/23 00:07:35;;;;;;;11.93;6.13;;;;;;;14.28;100.00;99996.56;5000353;28;20390;-74
2023/04/23 00:10:05;;;;;;;9.98;6.82;;;;;;;14.28;100.00;100015.34;5015583;28;20052;-74
2023/04/23 00:12:31;;;;;;;9.90;5.97;;;;;;;14.30;100.00;100005.25;5018033;28;20050;-74
2023/04/23 00:14:57;;;;;;;10.63;6.18;;;;;;;14.27;100.00;100000.28;5015382;28;20030;-74
2023/04/23 00:17:23;;;;;;;12.30;6.65;;;;;;;14.21;100.00;99996.56;5012951;28;20482;-74
2023/04/23 00:19:48;;;;;;;8.88;6.63;;;;;;;14.16;100.00;100001.69;5014043;28;20014;-74
2023/04/23 00:22:15;;;;;;;9.63;5.97;;;;;;;14.17;100.00;100007.94;4997695;28;20067;-74
2023/04/23 00:24:41;;;;;;;9.52;7.45;;;;;;;14.13;100.00;100004.81;5012869;28;20048;-74
2023/04/23 00:27:06;;;;;;;10.93;6.90;;;;;;;14.18;100.00;100002.34;5031236;28;20038;-74
2023/04/23 00:29:32;;;;;;;12.97;7.93;;;;;;;14.13;100.00;99996.75;5028209;28;20045;-74
2023/04/23 00:31:57;;;;;;;11.90;7.18;;;;;;;14.14;100.00;100004.63;5015700;28;20026;-74
2023/04/23 00:34:23;;;;;;;10.93;7.30;;;;;;;14.11;100.00;100002.31;5012835;28;20045;-74
2023/04/23 00:36:48;;;;;;;10.73;7.43;;;;;;;14.09;100.00;99995.50;5012952;28;20111;-74
2023/04/23 00:39:14;;;;;;;11.63;7.93;;;;;;;14.14;100.00;99991.19;5013684;28;20114;-74
2023/04/23 00:41:40;;;;;;;12.35;6.72;;;;;;;14.14;100.00;99993.88;5015837;28;20065;-74
2023/04/23 00:44:06;;;;;;;;;;;;;;;14.11;100.00;100001.50;5014889;28;20036;-74
2023/04/23 00:46:31;;;;;;;13.85;7.85;;;;;;;14.12;100.00;100005.84;5011982;28;19923;-74
2023/04/23 00:48:57;;;;;;;10.17;8.17;;;;;;;14.05;100.00;100002.31;4997006;28;20044;-74
2023/04/23 00:51:23;;;;;;;15.20;9.67;;;;;;;14.05;100.00;100008.53;4996123;28;20068;-74
2023/04/23 00:53:49;;;;;;;13.13;8.38;;;;;;;14.06;100.00;100002.09;5013741;28;20299;-74
2023/04/23 00:56:16;;;;;;;13.73;8.05;;;;;;;14.08;100.00;99999.22;5013399;28;20230;-74
2023/04/23 00:58:42;;;;;;;9.85;8.27;;;;;;;14.02;100.00;99994.66;5027779;28;20026;-75
2023/04/23 01:01:08;;;;;;;10.40;7.60;;;;;;;14.04;100.00;99997.97;5008184;28;20075;-74
2023/04/23 01:03:35;;;;;;;10.30;7.72;;;;;;;14.15;100.00;99986.66;5012294;28;20030;-74
2023/04/23 01:06:01;;;;;;;11.18;9.20;;;;;;;14.00;100.00;99984.16;5030071;28;20045;-74
2023/04/23 01:08:27;;;;;;;;;;;;;;;14.03;100.00;99994.47;4997112;28;20022;-74
2023/04/23 01:10:53;;;;;;;12.52;8.82;;;;;;;14.08;100.00;99996.53;5014514;28;20378;-74
2023/04/23 01:13:21;;;;;;;11.48;8.27;;;;;;;13.98;100.00;99990.72;5019606;28;20040;-74
2023/04/23 01:15:46;;;;;;;10.90;8.48;;;;;;;13.98;100.00;100006.81;4998018;28;20068;-74
2023/04/23 01:18:13;;;;;;;9.48;7.10;;;;;;;13.94;100.00;100004.56;5016077;28;20033;-74
2023/04/23 01:20:38;;;;;;;;;;;;;;;13.89;100.00;100028.50;5012926;28;20445;-74
2023/04/23 01:23:05;;;;;;;12.00;9.23;;;;;;;13.87;100.00;100030.53;5018963;28;20329;-74
2023/04/23 01:25:30;;;;;;;11.75;9.15;;;;;;;13.85;100.00;100050.56;4999518;28;20049;-74
2023/04/23 01:27:57;;;;;;;10.77;9.25;;;;;;;13.83;100.00;100055.28;5021860;28;20034;-74
2023/04/23 01:30:25;;;;;;;16.70;10.23;;;;;;;13.84;100.00;100073.88;5011526;28;20490;-74
2023/04/23 01:32:53;;;;;;;14.38;10.02;;;;;;;13.80;100.00;100067.25;5011903;28;20089;-74
2023/04/23 01:35:18;;;;;;;14.48;10.98;;;;;;;13.65;100.00;100071.91;5012300;28;20300;-73
2023/04/23 01:37:44;;;;;;;12.67;10.10;;;;;;;13.51;100.00;100058.47;5010797;28;20032;-73
2023/04/23 01:40:10;;;;;;;20.17;11.95;;;;;;;13.59;100.00;100064.69;5006946;28;20070;-74
2023/04/23 01:42:37;;;;;;;13.45;10.35;;;;;;;13.57;100.00;100074.78;5010658;28;20085;-74
2023/04/23 01:45:02;;;;;;;15.50;10.38;;;;;;;13.61;100.00;100063.47;5013425;28;20669;-74
2023/04/23 01:47:28;;;;;;;14.77;10.97;;;;;;;13.59;100.00;100062.00;5012497;28;20053;-74
2023/04/23 01:49:53;;;;;;;13.63;10.40;;;;;;;13.51;100.00;100060.31;5015394;28;20323;-74
2023/04/23 01:52:19;;;;;;;16.33;11.38;;;;;;;13.51;100.00;100055.78;5011824;28;20029;-73
2023/04/23 01:54:44;;;;;;;18.37;11.83;;;;;;;13.45;100.00;100043.16;4993847;28;20152;-73
2023/04/23 01:57:11;;;;;;;17.40;12.75;;;;;;;13.39;100.00;100043.97;5024108;28;20811;-78
2023/04/23 01:59:36;;;;;;;17.27;13.18;;;;;;;13.19;100.00;100029.59;5010776;28;20325;-74
2023/04/23 02:02:02;;;;;;;18.80;13.45;;;;;;;13.21;100.00;100048.97;5024421;28;20037;-73
2023/04/23 02:04:28;;;;;;;20.40;12.87;;;;;;;13.17;100.00;100050.38;5011390;28;20120;-73
2023/04/23 02:06:54;;;;;;;16.08;12.55;;;;;;;13.10;100.00;100040.44;5012985;28;20049;-73
2023/04/23 02:09:22;;;;;;;22.00;13.90;;;;;;;13.15;100.00;100042.53;5017935;28;20094;-74
2023/04/23 02:11:48;;;;;;;18.92;14.63;;;;;;;13.06;100.00;100031.16;5001439;28;20022;-75
2023/04/23 02:14:14;;;;;;;17.25;12.75;;;;;;;13.10;100.00;100036.94;5019320;28;20036;-73
2023/04/23 02:16:40;;;;;;;20.10;13.70;;;;;;;13.01;100.00;100036.25;5011724;28;20030;-77
2023/04/23 02:19:05;;;;;;;18.87;13.87;;;;;;;13.06;100.00;100033.84;5024953;28;20463;-78
2023/04/23 02:21:31;;;;;;;23.00;15.40;;;;;;;13.05;100.00;100034.84;5016588;28;20038;-77
2023/04/23 02:23:56;;;;;;;23.37;15.53;;;;;;;12.88;100.00;100001.34;5019273;28;20153;-73
2023/04/23 02:26:23;;;;;;;21.87;14.93;;;;;;;12.83;100.00;100014.47;5017167;28;20417;-75
2023/04/23 02:28:49;;;;;;;20.58;15.13;;;;;;;12.80;100.00;100021.06;4995273;28;20200;-74
2023/04/23 02:31:16;;;;;;;22.10;14.60;;;;;;;12.83;100.00;100015.34;5007619;28;20042;-75
2023/04/23 02:33:42;;;;;;;19.05;15.00;;;;;;;12.77;100.00;100020.63;5011213;28;20445;-75
2023/04/23 02:36:09;;;;;;;18.52;13.50;;;;;;;12.74;100.00;100021.03;5024019;28;20025;-74
2023/04/23 02:38:34;;;;;;;21.02;15.45;;;;;;;12.78;100.00;100016.94;5014277;28;20077;-72
2023/04/23 02:41:00;;;;;;;19.23;14.57;;;;;;;12.81;100.00;100019.22;5017707;28;20064;-78
2023/04/23 02:43:26;;;;;;;20.70;15.73;;;;;;;12.74;100.00;100016.50;4997118;28;20160;-74
2023/04/23 02:45:51;;;;;;;23.37;16.50;;;;;;;12.71;100.00;100010.69;5013373;28;20117;-74
2023/04/23 02:48:17;;;;;;;22.40;15.23;;;;;;;12.81;100.00;100021.91;4997332;28;20394;-72
2023/04/23 02:50:42;;;;;;;25.13;16.37;;;;;;;12.92;100.00;100029.38;5014678;28;20438;-78
2023/04/23 02:53:07;;;;;;;27.10;19.97;;;;;;;12.75;100.00;100012.78;5013442;28;20295;-77
2023/04/23 02:55:33;;;;;;;28.90;20.83;;;;;;;12.52;100.00;99998.81;5010842;28;20121;-73
2023/04/23 02:57:59;;;;;;;30.93;21.90;;;;;;;12.30;100.00;99988.13;5000173;28;20033;-78
2023/04/23 03:00:25;;;;;;;39.08;25.38;;;;;;;12.14;100.00;99986.53;5010844;28;20029;-73
2023/04/23 03:02:51;;;;;;;37.92;26.55;;;;;;;11.99;100.00;99975.06;5016937;28;20254;-73
2023/04/23 03:05:16;;;;;;;43.97;28.87;;;;;;;11.96;100.00;99978.09;4995819;28;20613;-73
2023/04/23 03:07:42;;;;;;;41.80;29.40;;;;;;;11.76;100.00;99964.50;4996054;28;20036;-76
2023/04/23 03:10:08;;;;;;;48.20;32.13;;;;;;;11.68;100.00;99952.06;5027619;28;20033;-72
2023/04/23 03:12:33;;;;;;;53.95;36.78;;;;;;;11.60;100.00;99953.00;5014703;28;20080;-73
2023/04/23 03:14:59;;;;;;;57.88;37.15;;;;;;;11.59;100.00;99961.25;5010754;28;20112;-76
2023/04/23 03:17:26;;;;;;;56.60;35.15;;;;;;;11.54;100.00;99964.47;5014845;28;20036;-74
2023/04/23 03:19:51;;;;;;;57.53;37.13;;;;;;;11.39;100.00;99964.47;5015115;28;20030;-73
2023/04/23 03:22:17;;;;;;;55.13;37.08;;;;;;;11.44;100.00;99987.16;5015136;28;20120;-74
2023/04/23 03:24:43;;;;;;;53.80;35.37;;;;;;;11.30;100.00;99980.81;5013754;28;20025;-73
2023/04/23 03:27:08;;;;;;;60.00;36.50;;;;;;;11.23;100.00;99986.06;5010467;28;20092;-72
2023/04/23 03:29:34;;;;;;;53.60;36.70;;;;;;;11.23;100.00;100001.28;5019193;28;20045;-75
2023/04/23 03:32:00;;;;;;;48.13;31.98;;;;;;;11.08;100.00;99995.94;5016651;28;20578;-72
2023/04/23 03:34:25;;;;;;;39.80;28.73;;;;;;;10.74;100.00;99965.25;5013757;28;20115;-72
2023/04/23 03:36:50;;;;;;;41.77;27.13;;;;;;;10.47;100.00;99967.50;5015317;28;20495;-75
2023/04/23 03:39:16;;;;;;;41.50;27.83;;;;;;;10.54;100.00;99983.63;5008793;28;20033;-74
2023/04/23 03:41:51;;;;;;;42.53;27.83;;;;;;;10.36;100.00;99986.63;5014399;28;20650;-75
2023/04/23 03:44:20;;;;;;;44.92;29.08;;;;;;;10.28;100.00;100002.66;5013959;28;20672;-71
2023/04/23 03:46:45;;;;;;;42.42;26.98;;;;;;;10.18;100.00;100007.41;4997052;28;20034;-72
2023/04/23 03:49:12;;;;;;;45.10;27.98;;;;;;;10.04;100.00;100001.00;5017950;28;20021;-73
2023/04/23 03:51:38;;;;;;;45.83;28.30;;;;;;;9.92;100.00;100000.56;5012903;28;20044;-75
2023/04/23 03:54:03;;;;;;;45.50;26.73;;;;;;;10.03;100.00;100018.00;5025696;28;20123;-76
2023/04/23 03:56:31;;;;;;;46.45;29.05;;;;;;;10.09;100.00;100015.47;5018711;28;20069;-76
2023/04/23 03:59:15;;;;;;;47.35;29.40;;;;;;;10.09;100.00;100038.63;5016378;28;20033;-72
2023/04/23 04:01:42;;;;;;;41.63;26.90;;;;;;;10.01;100.00;100022.69;5019881;28;20030;-71
2023/04/23 04:04:08;;;;;;;43.03;26.35;;;;;;;10.06;100.00;100026.47;5025600;28;20031;-75
2023/04/23 04:06:33;;;;;;;46.90;28.63;;;;;;;10.09;100.00;100031.47;4996524;28;20080;-75
2023/04/23 04:08:58;;;;;;;43.30;27.60;;;;;;;10.12;100.00;100036.44;4999332;28;20514;-74
2023/04/23 04:11:25;;;;;;;46.97;29.07;;;;;;;9.98;100.00;100031.06;5013331;28;20030;-75
2023/04/23 04:13:50;;;;;;;49.22;27.17;;;;;;;10.02;100.00;100046.53;4997038;28;20469;-72
2023/04/23 04:16:15;;;;;;;51.27;30.57;;;;;;;10.09;100.00;100047.47;5014399;28;20094;-73
2023/04/23 04:18:41;;;;;;;48.53;28.43;;;;;;;9.92;100.00;100035.22;5011829;28;20123;-71
2023/04/23 04:21:06;;;;;;;45.53;26.70;;;;;;;9.87;100.00;100040.25;5009412;28;20032;-75
2023/04/23 04:23:32;;;;;;;43.03;25.90;;;;;;;9.89;100.00;100055.06;5012642;28;20042;-75
2023/04/23 04:25:58;;;;;;;48.65;26.55;;;;;;;9.79;100.00;100045.66;5014535;28;20041;-75
2023/04/23 04:28:24;;;;;;;46.00;24.20;;;;;;;9.83;100.00;100053.13;4996555;28;20037;-76
2023/04/23 04:30:52;;;;;;;38.90;20.57;;;;;;;9.76;100.00;100051.31;5013254;28;20532;-73
2023/04/23 04:33:19;;;;;;;39.83;22.15;;;;;;;9.78;100.00;100054.63;5018793;28;20033;-75
2023/04/23 04:35:45;;;;;;;;;;;;;;;9.61;100.00;100049.38;5013033;28;20026;-75
2023/04/23 04:38:11;;;;;;;30.90;15.85;;;;;;;9.48;100.00;100036.63;5024563;28;20019;-74
2023/04/23 04:40:36;;;;;;;32.97;16.75;;;;;;;9.56;100.00;100041.09;5028749;28;20530;-75
2023/04/23 04:43:04;;;;;;;26.80;15.23;;;;;;;9.61;100.00;100043.22;5015441;28;20571;-73
2023/04/23 04:45:29;;;;;;;24.33;13.38;;;;;;;9.49;100.00;100035.59;5012018;28;20042;-74
2023/04/23 04:47:55;;;;;;;22.92;13.38;;;;;;;9.38;100.00;100027.16;5014874;28;20491;-72
2023/04/23 04:50:20;;;;;;;26.13;12.40;;;;;;;9.28;100.00;100012.22;5014544;28;20029;-71
2023/04/23 04:52:46;;;;;;;25.35;12.93;;;;;;;9.32;100.00;100017.19;5012260;28;20034;-74
2023/04/23 04:55:11;;;;;;;21.13;11.80;;;;;;;9.29;100.00;100023.69;5024566;28;20033;-73
2023/04/23 04:57:36;;;;;;;21.67;12.47;;;;;;;9.30;100.00;100020.88;5011927;28;20030;-75
2023/04/23 05:00:19;;;;;;;24.13;11.90;;;;;;;9.26;100.00;100024.03;5014692;28;20049;-72
2023/04/23 05:02:46;;;;;;;22.02;10.65;;;;;;;9.32;100.00;100028.69;5006738;28;20037;-72
2023/04/23 05:05:12;;;;;;;22.52;10.60;;;;;;;9.25;100.00;100030.38;5027509;28;20071;-73
2023/04/23 05:07:37;;;;;;;19.48;10.77;;;;;;;9.33;100.00;100027.69;5026396;28;20041;-76
2023/04/23 05:10:02;;;;;;;19.17;11.50;;;;;;;9.21;100.00;100034.38;5009583;28;20033;-73
2023/04/23 05:12:28;;;;;;;19.75;10.50;;;;;;;9.15;100.00;100027.88;5022961;28;20044;-75
2023/04/23 05:14:53;;;;;;;31.03;11.50;;;;;;;9.33;100.00;100050.81;5027765;28;20093;-73
2023/04/23 05:17:18;;;;;;;19.80;10.57;;;;;;;9.20;100.00;100040.69;5021952;28;20047;-73
2023/04/23 05:19:44;;;;;;;16.50;10.53;;;;;;;9.28;100.00;100046.00;5025226;28;20037;-74
2023/04/23 05:22:10;;;;;;;17.20;10.53;;;;;;;9.34;100.00;100052.47;5024743;28;20037;-74
2023/04/23 05:24:36;;;;;;;14.40;9.13;;;;;;;9.28;100.00;100030.84;5006639;28;20494;-74
2023/04/23 05:27:01;;;;;;;20.33;8.38;;;;;;;9.33;100.00;100018.84;5021403;28;20048;-75
2023/04/23 05:29:26;;;;;;;20.87;9.73;;;;;;;9.38;100.00;100027.16;5019930;28;20034;-75
2023/04/23 05:31:52;;;;;;;18.70;8.40;;;;;;;9.41;100.00;100026.81;4996195;28;20033;-73
2023/04/23 05:34:17;;;;;;;13.67;8.37;;;;;;;9.45;100.00;100038.78;5012464;28;20044;-74
2023/04/23 05:36:43;;;;;;;17.80;8.00;;;;;;;9.43;100.00;100032.78;5011119;28;20116;-74
2023/04/23 05:39:08;;;;;;;13.70;8.07;;;;;;;9.42;100.00;100029.31;5024198;28;20033;-75
2023/04/23 05:41:33;;;;;;;11.63;7.03;;;;;;;9.50;100.00;100041.75;5014334;28;20467;-75
2023/04/23 05:43:59;;;;;;;14.30;8.57;;;;;;;9.58;100.00;100054.25;5022354;28;20187;-76
2023/04/23 05:46:25;;;;;;;12.20;8.23;;;;;;;9.64;100.00;100053.53;5021822;28;20617;-75
2023/04/23 05:48:50;;;;;;;12.48;7.78;;;;;;;9.63;100.00;100052.72;5011086;28;20083;-71
2023/04/23 05:51:16;;;;;;;13.33;8.10;;;;;;;9.63;100.00;100051.88;5012341;28;20037;-73
2023/04/23 05:53:41;;;;;;;13.75;7.72;;;;;;;9.61;100.00;100048.56;4999618;28;20033;-75
2023/04/23 05:56:06;;;;;;;15.37;6.87;;;;;;;9.53;100.00;100025.44;5013951;28;20037;-74
2023/04/23 05:58:32;;;;;;;8.87;5.50;;;;;;;9.58;100.00;100020.41;5004632;28;20049;-72
2023/04/23 06:00:57;;;;;;;14.60;5.87;;;;;;;9.39;100.00;99996.84;5006620;28;20069;-75
2023/04/23 06:03:22;;;;;;;14.73;6.90;;;;;;;9.56;100.00;100003.78;5011176;28;20112;-73
2023/04/23 06:05:48;;;;;;;11.67;5.97;;;;;;;9.52;100.00;99999.78;5013739;28;20053;-76
2023/04/23 06:08:13;;;;;;;16.13;6.83;;;;;;;9.66;100.00;99990.22;5013203;28;20258;-75
2023/04/23 06:10:38;;;;;;;7.40;5.67;;;;;;;9.60;100.00;99973.13;5011201;28;20060;-73
2023/04/23 06:13:04;;;;;;;9.93;5.83;;;;;;;9.66;100.00;99948.41;5019883;28;20061;-75
2023/04/23 06:15:29;;;;;;;7.77;5.40;;;;;;;9.86;100.00;99958.63;4994541;28;20034;-76
2023/04/23 06:17:54;;;;;;;7.57;5.07;;;;;;;9.92;100.00;99949.91;5012276;28;20025;-71
2023/04/23 06:20:21;;;;;;;;;;;;;;;10.00;100.00;99941.03;5012110;28;20057;-74
2023/04/23 06:22:46;;;;;;;10.38;5.18;;;;;;;9.95;100.00;99920.25;5027937;28;20015;-73
2023/04/23 06:25:12;;;;;;;10.63;5.80;;;;;;;9.98;100.00;99911.06;5015157;28;20277;-75
2023/04/23 06:27:37;;;;;;;10.07;5.47;;;;;;;9.91;100.00;99865.59;5014378;28;20041;-76
2023/04/23 06:30:09;;;;;;;9.43;5.40;;;;;;;10.03;100.00;99834.81;5029256;28;20021;-75
2023/04/23 06:32:35;;;;;;;11.45;4.72;;;;;;;9.99;100.00;99788.19;5010575;28;20036;-71
2023/04/23 06:35:00;;;;;;;10.67;5.27;;;;;;;10.17;100.00;99782.50;5012465;28;20411;-74
2023/04/23 06:37:27;;;;;;;8.73;4.83;;;;;;;10.31;100.00;99752.38;5012103;28;20148;-76
2023/04/23 06:39:52;;;;;;;;;;;;;;;10.54;100.00;99730.91;5026985;28;20026;-74
2023/04/23 06:42:17;;;;;;;7.00;4.68;;;;;;;10.49;100.00;99677.28;5011831;28;19920;-74
2023/04/23 06:44:50;;;;;;;6.30;4.35;;;;;;;10.70;100.00;99696.97;5032740;28;20403;-74
2023/04/23 06:47:15;;;;;;;12.23;4.53;;;;;;;10.61;100.00;99628.75;5011702;28;20163;-74
2023/04/23 06:49:41;;;;;;;8.60;5.10;;;;;;;10.59;100.00;99626.25;4992965;28;20504;-74
2023/04/23 06:52:06;;;;;;;8.37;5.37;;;;;;;10.49;100.00;99559.84;5019281;28;20021;-74
2023/04/23 06:54:31;;;;;;;6.17;4.40;;;;;;;10.71;100.00;99543.81;5009780;28;20034;-74
2023/04/23 06:56:57;;;;;;;7.63;5.13;;;;;;;10.96;100.00;99526.34;5012961;28;20034;-74
2023/04/23 06:59:22;;;;;;;7.97;5.40;;;;;;;10.98;100.00;99476.25;5010513;28;20125;-75
2023/04/23 07:01:51;;;;;;;6.70;5.28;;;;;;;10.54;100.00;99324.44;4997267;28;20030;-75
2023/04/23 07:04:17;;;;;;;9.93;4.77;;;;;;;10.69;100.00;99327.78;5012292;28;20048;-74
2023/04/23 07:06:42;;;;;;;9.43;5.03;;;;;;;10.78;100.00;99379.19;5009696;28;20030;-75
2023/04/23 07:09:08;;;;;;;9.17;5.13;;;;;;;10.30;100.00;99328.38;5006338;28;20033;-75
2023/04/23 07:11:35;;;;;;;7.40;4.47;;;;;;;10.62;100.00;99433.69;5014315;28;20036;-74
2023/04/23 07:14:00;;;;;;;7.50;4.40;;;;;;;10.59;100.00;99443.94;5021270;28;20487;-75
2023/04/23 07:16:28;;;;;;;5.32;3.85;;;;;;;10.82;100.00;99559.31;5012866;28;20124;-75
2023/04/23 07:18:53;;;;;;;8.55;4.75;;;;;;;10.84;100.00;99556.44;5012301;28;20053;-74
2023/04/23 07:21:19;;;;;;;7.03;5.07;;;;;;;10.78;100.00;99545.53;5012203;28;20029;-75
2023/04/23 07:23:44;;;;;;;8.00;4.43;;;;;;;11.04;100.00;99552.09;5012859;28;20073;-75
2023/04/23 07:26:10;;;;;;;11.02;4.85;;;;;;;10.99;100.00;99448.50;5023064;28;20033;-75
2023/04/23 07:28:36;;;;;;;8.68;4.50;;;;;;;11.09;100.00;99436.66;5028999;28;20493;-75
2023/04/23 07:31:01;;;;;;;10.00;4.70;;;;;;;11.05;100.00;99396.19;5013024;28;20688;-75
2023/04/23 07:33:27;;;;;;;6.22;4.22;;;;;;;11.15;100.00;99371.75;5009190;28;20145;-75
2023/04/23 07:35:53;;;;;;;;;;;;;;;11.11;100.00;99309.06;5012735;28;20049;-75
2023/04/23 07:38:18;;;;;;;;;;;;;;;11.14;100.00;99215.19;5014078;28;20364;-74
2023/04/23 07:40:43;;;;;;;10.73;5.30;;;;;;;11.07;100.00;99172.44;5023756;28;19920;-75
2023/04/23 07:43:09;;;;;;;6.93;4.87;;;;;;;11.10;100.00;99307.44;5023812;28;20465;-74
2023/04/23 07:45:34;;;;;;;7.15;3.80;;;;;;;11.04;100.00;99266.31;5007359;28;20052;-75
2023/04/23 07:48:01;;;;;;;6.20;4.90;;;;;;;11.26;100.00;99279.50;5019693;28;20057;-75
2023/04/23 07:50:26;;;;;;;5.32;4.18;;;;;;;11.45;100.00;99326.84;5023851;28;20486;-75
2023/04/23 07:52:51;;;;;;;4.77;3.80;;;;;;;11.40;100.00;99257.97;5025288;28;20061;-75
2023/04/23 07:55:19;;;;;;;6.57;4.13;;;;;;;11.66;100.00;99188.66;5027298;28;20394;-75
2023/04/23 07:57:44;;;;;;;9.02;4.65;;;;;;;11.57;100.00;99126.59;5027375;28;20051;-73
2023/04/23 08:00:10;;;;;;;5.03;3.77;;;;;;;11.59;100.00;99152.09;5010562;28;20407;-74
2023/04/23 08:02:38;;;;;;;8.48;4.75;;;;;;;11.50;100.00;99075.84;5011497;28;20037;-74
2023/04/23 08:05:04;;;;;;;6.87;4.40;;;;;;;11.60;100.00;99163.59;5027399;28;20037;-75
2023/04/23 08:07:29;;;;;;;9.35;5.55;;;;;;;11.70;100.00;99176.53;5027447;28;20290;-73
2023/04/23 08:09:58;;;;;;;9.40;4.23;;;;;;;11.72;100.00;99156.56;5026628;28;20095;-72
2023/04/23 08:12:23;;;;;;;7.38;5.28;;;;;;;11.47;100.00;99136.88;5010876;28;20288;-75
2023/04/23 08:14:49;;;;;;;8.67;4.47;;;;;;;11.72;100.00;99151.22;5026943;28;20037;-75
2023/04/23 08:17:17;;;;;;;5.80;4.05;;;;;;;11.95;100.00;99180.22;5027105;28;20025;-73
2023/04/23 08:19:43;;;;;;;9.17;4.67;;;;;;;12.12;100.00;99062.88;5026840;28;20032;-73
2023/04/23 08:22:09;;;;;;;8.30;5.07;;;;;;;12.09;100.00;98977.72;5027198;28;20029;-74
2023/04/23 08:24:34;;;;;;;;;;;;;;;12.35;100.00;98974.03;5010715;28;20937;-73
2023/04/23 08:27:00;;;;;;;;;;;;;;;12.85;100.00;99038.31;5026949;28;19967;-75
2023/04/23 08:29:26;;;;;;;9.55;4.65;;;;;;;13.12;100.00;98930.09;5012233;28;20004;-75
2023/04/23 08:31:51;;;;;;;7.97;5.43;;;;;;;13.39;100.00;98847.53;5024417;28;20079;-74
2023/04/23 08:34:16;;;;;;;7.75;5.03;;;;;;;13.96;100.00;98847.13;5027431;28;20375;-74
2023/04/23 08:36:42;;;;;;;7.90;5.03;;;;;;;14.72;100.00;98939.41;5027664;28;20033;-74
2023/04/23 08:39:08;;;;;;;8.47;5.00;;;;;;;14.91;100.00;98727.84;5027589;28;20060;-74
2023/04/23 08:41:41;;;;;;;8.82;4.95;;;;;;;14.85;100.00;98487.06;5028031;28;20040;-74
2023/04/23 08:44:15;;;;;;;7.13;4.85;;;;;;;14.48;100.00;98316.47;5025675;28;20040;-74
2023/04/23 08:46:42;;;;;;;8.55;6.30;;;;;;;14.27;100.00;98428.09;5027811;28;20514;-74
2023/04/23 08:49:14;;;;;;;8.93;5.88;;;;;;;13.81;100.00;98220.78;5018050;28;20021;-74
2023/04/23 08:51:48;;;;;;;8.05;5.45;;;;;;;13.80;100.00;98535.63;5027712;28;20040;-75
2023/04/23 08:54:20;;;;;;;8.88;6.00;;;;;;;13.86;100.00;98435.44;5019241;28;20529;-75
2023/04/23 08:56:46;;;;;;;7.90;5.75;;;;;;;14.28;100.00;98571.97;5026299;28;20026;-75
2023/04/23 08:59:11;;;;;;;9.38;5.28;;;;;;;14.52;100.00;98617.53;5027255;28;20056;-75
2023/04/23 09:01:37;;;;;;;9.87;6.40;;;;;;;14.48;98.88;98385.47;5026258;28;20073;-75
2023/04/23 09:04:03;;;;;;;8.67;6.80;;;;;;;13.92;99.30;98363.91;5030714;28;20082;-74
2023/04/23 09:06:31;;;;;;;9.77;6.30;;;;;;;14.19;100.00;98586.84;5028108;28;20037;-74
2023/04/23 09:08:57;;;;;;;10.93;6.55;;;;;;;14.31;98.07;98421.19;5027017;28;20033;-74
2023/04/23 09:11:27;;;;;;;9.70;6.65;;;;;;;14.08;95.58;98204.03;5027670;28;20028;-73
2023/04/23 09:13:53;;;;;;;10.55;6.60;;;;;;;14.77;95.57;98432.69;5015722;28;20033;-76
2023/04/23 09:16:19;;;;;;;;;;;;;;;15.36;94.35;98488.59;5021226;28;20386;-74
2023/04/23 09:18:44;;;;;;;;;;;;;;;15.54;90.99;98263.44;5009624;28;19935;-74
2023/04/23 09:21:10;;;;;;;9.48;5.82;;;;;;;15.72;89.27;98131.31;5027056;28;20016;-74
2023/04/23 09:23:38;;;;;;;14.55;7.47;;;;;;;16.41;88.83;98326.88;5026864;28;20037;-74
2023/04/23 09:26:05;;;;;;;8.95;6.38;;;;;;;16.44;85.17;98023.94;5025273;28;20073;-75
2023/04/23 09:28:35;;;;;;;11.63;6.15;;;;;;;16.55;83.55;97923.25;5025886;28;20033;-74
2023/04/23 09:31:01;;;;;;;11.63;6.78;;;;;;;16.53;83.17;97995.41;5025379;28;20549;-74
2023/04/23 09:33:31;;;;;;;9.70;7.70;;;;;;;16.68;81.63;97917.28;5025448;28;20108;-74
2023/04/23 09:35:57;;;;;;;9.98;7.80;;;;;;;15.80;79.58;97514.03;5025357;28;20041;-74
2023/04/23 09:38:22;;;;;;;10.77;6.03;;;;;;;15.75;81.98;97909.41;5008509;28;20027;-73
2023/04/23 09:40:49;;;;;;;10.18;7.53;;;;;;;14.90;83.50;97904.19;5025164;28;20467;-74
2023/04/23 09:43:14;;;;;;;9.80;6.72;;;;;;;14.98;83.45;97990.50;5008620;28;20041;-73
2023/04/23 09:45:48;;;;;;;10.50;6.90;;;;;;;15.25;84.29;98191.16;5009198;28;20040;-74
2023/04/23 09:48:13;;;;;;;11.60;7.07;;;;;;;15.21;82.95;98063.72;5026393;28;20295;-74
2023/04/23 09:50:39;;;;;;;8.80;7.13;;;;;;;15.27;83.00;98094.16;5026745;28;20017;-74
2023/04/23 09:53:07;;;;;;;11.60;6.53;;;;;;;15.30;84.14;98271.03;5024742;28;20029;-74
2023/04/23 09:55:36;;;;;;;9.13;6.93;;;;;;;15.40;81.91;98032.69;5025024;28;20095;-74
2023/04/23 09:58:06;;;;;;;10.27;6.78;;;;;;;15.41;82.83;98224.38;5024792;28;20064;-74
2023/04/23 10:00:36;;;;;;;10.25;6.72;;;;;;;15.37;82.42;98177.53;5018019;28;20065;-75
2023/04/23 10:03:03;;;;;;;10.38;7.03;;;;;;;15.59;81.75;98209.72;5023504;28;20047;-75
2023/04/23 10:05:29;;;;;;;9.15;6.95;;;;;;;15.95;82.82;98393.81;5024841;28;20025;-75
2023/04/23 10:07:58;;;;;;;9.00;7.18;;;;;;;16.65;78.29;98074.06;5020757;28;20067;-74
2023/04/23 10:10:24;;;;;;;10.23;6.85;;;;;;;17.36;74.28;97855.97;5024530;28;20091;-74
2023/04/23 10:12:52;;;;;;;9.20;6.32;;;;;;;17.73;74.51;97985.00;5024722;28;20024;-74
2023/04/23 10:15:18;;;;;;;8.25;6.05;;;;;;;17.54;71.35;97574.81;5025757;28;20072;-74
2023/04/23 10:17:45;;;;;;;12.83;6.40;;;;;;;17.13;72.55;97691.06;5024590;28;20057;-74
2023/04/23 10:20:12;;;;;;;10.50;6.82;;;;;;;17.81;72.32;97906.19;5020611;28;20041;-74
2023/04/23 10:22:39;;;;;;;9.30;6.35;;;;;;;17.98;69.91;97625.13;5024502;28;20402;-74
2023/04/23 10:25:11;;;;;;;9.63;6.85;;;;;;;17.81;69.67;97608.56;5024464;28;20048;-74
2023/04/23 10:27:43;;;;;;;8.80;6.65;;;;;;;17.38;71.12;97740.53;5026118;28;20637;-74
2023/04/23 10:30:10;;;;;;;10.60;6.57;;;;;;;17.32;69.47;97518.66;5016513;28;20117;-74
2023/04/23 10:32:37;;;;;;;10.73;5.88;;;;;;;18.21;67.91;97617.28;5024306;28;20436;-74
2023/04/23 10:35:04;;;;;;;10.75;6.60;;;;;;;16.58;67.42;97093.25;5018767;28;20042;-74
2023/04/23 10:37:29;;;;;;;;;;;;;;;18.22;67.73;97753.91;5021150;28;20064;-75
2023/04/23 10:40:03;;;;;;;9.48;5.90;;;;;;;18.07;67.05;97582.09;5020737;28;19917;-74
2023/04/23 10:42:29;;;;;;;8.73;6.03;;;;;;;17.82;66.57;97510.34;5024504;28;20386;-74
2023/04/23 10:44:57;;;;;;;8.65;5.30;;;;;;;18.86;67.06;97968.91;5024112;28;20063;-74
2023/04/23 10:47:22;;;;;;;7.35;5.25;;;;;;;18.35;64.58;97384.06;5025233;28;20045;-73
2023/04/23 10:49:48;;;;;;;9.07;5.80;;;;;;;18.90;64.05;97578.03;5007541;28;20037;-74
2023/04/23 10:52:16;;;;;;;7.70;5.97;;;;;;;18.30;61.91;97097.91;5020395;28;20033;-74
2023/04/23 10:54:43;;;;;;;7.07;5.13;;;;;;;18.21;63.15;97340.00;5023946;28;20029;-74
2023/04/23 10:57:09;;;;;;;7.28;5.75;;;;;;;18.58;61.56;97272.66;5020706;28;20479;-74
2023/04/23 10:59:40;;;;;;;8.27;6.43;;;;;;;18.77;59.44;97063.44;5025920;28;20120;-74
2023/04/23 11:02:12;;;;;;;7.53;5.63;;;;;;;19.97;58.29;97357.97;5023884;28;20025;-74
2023/04/23 11:04:56;;;;;;;7.28;5.55;;;;;;;19.81;57.58;97171.59;5006961;28;20040;-74
2023/04/23 11:07:30;;;;;;;8.82;6.63;;;;;;;19.44;57.81;97145.69;4998961;28;20494;-74
2023/04/23 11:09:59;;;;;;;6.78;5.75;;;;;;;20.28;55.69;97119.72;5028069;28;20492;-74
2023/04/23 11:12:28;;;;;;;7.97;6.13;;;;;;;20.37;55.09;97082.63;5016185;28;20026;-74
2023/04/23 11:14:55;;;;;;;12.00;7.35;;;;;;;19.31;55.05;96652.47;5021899;28;20458;-75
2023/04/23 11:17:43;;;;;;;;;;;;;;;20.37;55.43;97253.28;5008232;28;20394;-74